JA01EX RJTI-RJTI

Flight info

Callsign JA01EX
Flight time 0h 6m
Altitude 0000
Route N0110/VFR KEIYOSEABERTH
Aircraft EC35/L-SDLOV/LB1

Departure

Time 2026-05-06 15:26
Airport Tokyo Heliport (RJTI)

Arrival

Time 2026-05-06 15:32
Airport Tokyo Heliport (RJTI)
Time Latitude Longitude Altitude Speed Heading
2026-05-06 15:19 35.63767 139.83823 23 ft 0 kts 183°
2026-05-06 15:24 35.63743 139.83840 25 ft 7 kts 155°
2026-05-06 15:24 35.63687 139.83841 27 ft 13 kts 190°
2026-05-06 15:25 35.63630 139.83892 26 ft 13 kts 92°
2026-05-06 15:25 35.63607 139.83954 38 ft 19 kts 196°
2026-05-06 15:25 35.63264 139.84026 188 ft 73 kts 140°
2026-05-06 15:25 35.62955 139.84628 420 ft 94 kts 121°
2026-05-06 15:26 35.62596 139.85389 509 ft 113 kts 121°
2026-05-06 15:26 35.62161 139.86254 495 ft 123 kts 123°
2026-05-06 15:26 35.61633 139.87124 448 ft 130 kts 131°
2026-05-06 15:26 35.61030 139.87836 641 ft 115 kts 139°
2026-05-06 15:27 35.60428 139.88500 604 ft 119 kts 139°
2026-05-06 15:27 35.59786 139.89144 618 ft 117 kts 144°
2026-05-06 15:27 35.59099 139.89691 600 ft 119 kts 150°
2026-05-06 15:27 35.58381 139.90163 633 ft 116 kts 154°
2026-05-06 15:28 35.57635 139.90620 526 ft 123 kts 155°
2026-05-06 15:28 35.56880 139.91025 559 ft 119 kts 158°
2026-05-06 15:28 35.56113 139.91423 508 ft 121 kts 157°
2026-05-06 15:28 35.55346 139.91834 528 ft 118 kts 157°
2026-05-06 15:29 35.54612 139.92226 615 ft 112 kts 157°
2026-05-06 15:29 35.53890 139.92624 573 ft 117 kts 156°
2026-05-06 15:29 35.53149 139.93025 623 ft 113 kts 157°
2026-05-06 15:29 35.52442 139.93411 696 ft 110 kts 156°
2026-05-06 15:30 35.51746 139.93810 695 ft 111 kts 155°
2026-05-06 15:30 35.51097 139.94144 690 ft 77 kts 185°
2026-05-06 15:30 35.50881 139.93826 735 ft 50 kts 297°
2026-05-06 15:30 35.51206 139.93584 679 ft 67 kts 355°
2026-05-06 15:31 35.51470 139.93939 661 ft 65 kts 115°
2026-05-06 15:31 35.51131 139.93995 728 ft 60 kts 236°
2026-05-06 15:31 35.51253 139.93604 824 ft 53 kts 329°
2026-05-06 15:32 35.51620 139.94223 715 ft 60 kts 134°
2026-05-06 15:32 35.51245 139.94353 724 ft 57 kts 184°
2026-05-06 15:32 35.50897 139.94160 740 ft 53 kts 224°
2026-05-06 15:32 35.50766 139.93790 783 ft 46 kts 264°
2026-05-06 15:33 35.50881 139.93410 767 ft 51 kts 304°
2026-05-06 15:33 35.51184 139.93152 731 ft 58 kts 337°
2026-05-06 15:33 35.51595 139.93135 700 ft 61 kts 12°
2026-05-06 15:33 35.51897 139.93455 715 ft 56 kts 64°
2026-05-06 15:34 35.51862 139.93929 686 ft 60 kts 120°
2026-05-06 15:34 35.51524 139.94213 634 ft 68 kts 167°
2026-05-06 15:34 35.51116 139.94113 691 ft 53 kts 215°
2026-05-06 15:34 35.50973 139.93781 753 ft 42 kts 264°
2026-05-06 15:35 35.51086 139.93484 738 ft 49 kts 311°
2026-05-06 15:35 35.51448 139.93282 648 ft 64 kts 347°
2026-05-06 15:35 35.51873 139.93194 661 ft 59 kts 349°
2026-05-06 15:35 35.52305 139.93114 600 ft 66 kts 350°
2026-05-06 15:36 35.52787 139.93044 619 ft 80 kts 352°
2026-05-06 15:36 35.53443 139.92960 609 ft 108 kts 353°
2026-05-06 15:36 35.54243 139.92864 588 ft 124 kts 354°
2026-05-06 15:36 35.55153 139.92755 528 ft 141 kts 353°
2026-05-06 15:37 35.56078 139.92516 619 ft 133 kts 343°
2026-05-06 15:37 35.56908 139.92084 638 ft 127 kts 330°
2026-05-06 15:37 35.57653 139.91473 616 ft 127 kts 323°
2026-05-06 15:37 35.58346 139.90811 613 ft 125 kts 321°
2026-05-06 15:38 35.59018 139.90129 609 ft 125 kts 318°
2026-05-06 15:38 35.59649 139.89385 622 ft 124 kts 314°
2026-05-06 15:38 35.60326 139.88721 621 ft 123 kts 328°
2026-05-06 15:38 35.60992 139.88201 625 ft 96 kts 316°
2026-05-06 15:39 35.61280 139.87699 596 ft 60 kts 300°
2026-05-06 15:39 35.61538 139.87245 551 ft 72 kts 304°
2026-05-06 15:39 35.61850 139.86742 557 ft 71 kts 307°
2026-05-06 15:39 35.62156 139.86261 559 ft 71 kts 307°
2026-05-06 15:40 35.62472 139.85766 526 ft 76 kts 307°
2026-05-06 15:40 35.62783 139.85230 446 ft 79 kts 303°
2026-05-06 15:40 35.63177 139.84754 326 ft 72 kts 320°
2026-05-06 15:40 35.63529 139.84606 307 ft 42 kts
2026-05-06 15:41 35.63771 139.84562 329 ft 37 kts 330°
2026-05-06 15:41 35.63851 139.84206 248 ft 42 kts 282°
2026-05-06 15:41 35.63735 139.83980 116 ft 31 kts 209°
2026-05-06 15:41 35.63619 139.83952 29 ft 7 kts 189°
2026-05-06 15:42 35.63565 139.83941 28 ft 6 kts 244°
2026-05-06 15:42 35.63557 139.83872 27 ft 10 kts 279°
2026-05-06 15:42 35.63575 139.83833 27 ft 9 kts
2026-05-06 15:42 35.63637 139.83837 25 ft 10 kts
2026-05-06 15:43 35.63702 139.83843 28 ft 10 kts
2026-05-06 15:43 35.63747 139.83835 25 ft 4 kts 339°
2026-05-06 15:43 35.63763 139.83823 25 ft 1 kts
2026-05-06 15:43 35.63765 139.83824 23 ft 0 kts
2026-05-06 15:44 35.63767 139.83823 23 ft 0 kts